createdAt,value
2023-03-31T00:00:58.253Z,5.22
2023-03-31T00:06:02.093Z,4.38
2023-03-31T00:11:08.462Z,4.35
2023-03-31T00:16:11.659Z,3.65
2023-03-31T00:21:24.767Z,4.05
2023-03-31T00:26:29.662Z,3.78
2023-03-31T00:31:32.424Z,3.67
2023-03-31T00:36:36.793Z,3.57
2023-03-31T00:41:41.825Z,3.60
2023-03-31T00:46:52.287Z,4.05
2023-03-31T00:51:56.867Z,4.13
2023-03-31T00:57:03.609Z,3.60
2023-03-31T01:02:06.766Z,3.65
2023-03-31T01:07:16.935Z,4.25
2023-03-31T01:12:23.174Z,4.07
2023-03-31T01:17:29.942Z,3.85
2023-03-31T01:22:51.509Z,3.90
2023-03-31T01:28:15.701Z,3.65
2023-03-31T01:33:40.260Z,3.25
2023-03-31T01:39:05.084Z,3.80
2023-03-31T01:44:18.698Z,3.08
2023-03-31T01:49:30.158Z,4.43
2023-03-31T01:54:39.329Z,4.20
2023-03-31T01:59:52.170Z,3.80
2023-03-31T02:05:01.610Z,4.68
2023-03-31T02:10:08.685Z,4.00
2023-03-31T02:15:18.325Z,3.72
2023-03-31T02:20:22.994Z,4.32
2023-03-31T02:25:30.594Z,3.97
2023-03-31T02:30:44.471Z,4.07
2023-03-31T02:40:49.970Z,3.88
2023-03-31T02:45:53.883Z,2.90
2023-03-31T02:51:17.578Z,2.80
2023-03-31T02:56:31.994Z,3.77
2023-03-31T03:02:01.972Z,2.65
2023-03-31T03:07:10.009Z,3.03
2023-03-31T03:12:18.881Z,2.88
2023-03-31T03:17:27.817Z,2.78
2023-03-31T03:22:30.469Z,4.18
2023-03-31T03:27:33.232Z,3.40
2023-03-31T03:32:37.309Z,4.33
2023-03-31T03:37:40.379Z,4.60
2023-03-31T03:42:43.157Z,5.15
2023-03-31T03:47:47.140Z,6.10
2023-03-31T03:52:49.782Z,5.03
2023-03-31T03:57:52.370Z,6.13
2023-03-31T04:02:56.387Z,5.13
2023-03-31T04:07:59.955Z,5.65
2023-03-31T04:13:02.981Z,5.15
2023-03-31T04:18:07.066Z,6.20
2023-03-31T04:23:10.321Z,5.63
2023-03-31T04:28:14.686Z,6.07
2023-03-31T04:33:19.021Z,5.10
2023-03-31T04:38:23.615Z,6.47
2023-03-31T04:43:26.563Z,4.80
2023-03-31T04:48:30.514Z,5.55
2023-03-31T04:53:33.675Z,4.45
2023-03-31T04:58:36.263Z,4.50
2023-03-31T05:03:41.364Z,4.67
2023-03-31T05:08:44.872Z,4.95
2023-03-31T05:13:47.697Z,5.35
2023-03-31T05:18:51.688Z,4.43
2023-03-31T05:23:54.746Z,4.68
2023-03-31T05:28:58.279Z,4.38
2023-03-31T05:34:02.261Z,4.85
2023-03-31T05:39:04.958Z,5.05
2023-03-31T05:44:07.535Z,4.80
2023-03-31T05:49:11.931Z,3.80
2023-03-31T05:54:14.874Z,6.75
2023-03-31T05:59:17.472Z,4.45
2023-03-31T06:04:21.690Z,4.50
2023-03-31T06:09:24.380Z,4.00
2023-03-31T06:14:28.273Z,3.63
2023-03-31T06:19:32.456Z,4.00
2023-03-31T06:24:35.042Z,4.47
2023-03-31T06:29:38.556Z,5.87
2023-03-31T06:39:45.639Z,5.43
2023-03-31T06:44:48.176Z,3.75
2023-03-31T06:49:52.096Z,4.10
2023-03-31T06:54:54.664Z,3.90
2023-03-31T06:59:57.185Z,4.53
2023-03-31T07:05:01.151Z,4.23
2023-03-31T07:10:03.871Z,4.55
2023-03-31T07:15:07.864Z,3.45
2023-03-31T07:20:15.074Z,2.20
2023-03-31T07:25:18.834Z,2.85
2023-03-31T07:30:22.313Z,2.28
2023-03-31T07:35:27.349Z,2.20
2023-03-31T07:40:34.114Z,1.98
2023-03-31T07:45:37.159Z,1.53
2023-03-31T07:50:41.220Z,2.05
2023-03-31T07:55:43.767Z,1.73
2023-03-31T08:00:46.336Z,2.23
2023-03-31T08:05:52.508Z,2.03
2023-03-31T08:10:55.244Z,1.90
2023-03-31T08:15:58.908Z,1.77
2023-03-31T08:21:02.893Z,1.67
2023-03-31T08:26:16.452Z,1.75
2023-03-31T08:31:25.991Z,2.05
2023-03-31T08:36:31.235Z,1.73
2023-03-31T08:41:42.779Z,2.00
2023-03-31T08:46:45.669Z,1.77
2023-03-31T08:51:53.114Z,2.60
2023-03-31T08:56:55.842Z,2.38
2023-03-31T09:02:06.017Z,2.72
2023-03-31T09:07:17.342Z,2.10
2023-03-31T09:12:24.380Z,2.03
2023-03-31T09:17:30.374Z,1.88
2023-03-31T09:22:42.457Z,2.50
2023-03-31T09:27:47.673Z,2.03
2023-03-31T09:32:55.919Z,2.90
2023-03-31T09:38:00.628Z,3.83
2023-03-31T09:43:06.287Z,3.90
2023-03-31T09:48:15.299Z,3.40
2023-03-31T09:53:23.019Z,3.47
2023-03-31T09:58:26.203Z,3.25
2023-03-31T10:03:29.549Z,3.30
2023-03-31T10:13:44.869Z,3.38
2023-03-31T10:18:47.518Z,3.45
2023-03-31T10:23:52.196Z,3.15
2023-03-31T10:28:55.861Z,3.78
2023-03-31T10:33:59.791Z,3.72
2023-03-31T10:39:08.301Z,3.10
2023-03-31T10:44:34.035Z,3.20
2023-03-31T10:49:40.789Z,2.83
2023-03-31T10:54:49.965Z,3.15
2023-03-31T11:00:05.717Z,3.63
2023-03-31T11:05:16.452Z,4.13
2023-03-31T11:10:38.277Z,3.42
2023-03-31T11:15:48.151Z,3.00
2023-03-31T11:20:59.060Z,2.90
2023-03-31T11:26:07.093Z,3.88
2023-03-31T11:31:28.618Z,2.70
2023-03-31T11:36:44.529Z,3.45
2023-03-31T11:41:52.232Z,2.53
2023-03-31T11:47:00.016Z,2.63
2023-03-31T11:52:07.366Z,3.08
2023-03-31T11:57:21.385Z,2.47
2023-03-31T12:02:32.501Z,2.75
2023-03-31T12:07:40.828Z,3.03
2023-03-31T12:12:48.394Z,3.03
2023-03-31T12:18:00.638Z,2.20
2023-03-31T12:23:07.376Z,2.55
2023-03-31T12:34:43.321Z,2.00
2023-03-31T12:39:56.839Z,2.13
2023-03-31T12:45:05.952Z,2.10
2023-03-31T12:50:30.611Z,1.83
2023-03-31T12:55:38.741Z,2.50
2023-03-31T13:01:05.331Z,2.95
2023-03-31T13:06:12.860Z,1.73
2023-03-31T13:11:15.519Z,2.15
2023-03-31T13:16:21.391Z,2.17
2023-03-31T13:21:25.912Z,2.50
2023-03-31T13:26:47.135Z,2.03
2023-03-31T13:32:19.133Z,2.10
2023-03-31T13:37:38.507Z,2.00
2023-03-31T13:43:10.032Z,2.10
2023-03-31T13:48:27.320Z,2.38
2023-03-31T13:53:48.327Z,1.90
2023-03-31T13:59:30.383Z,2.15
2023-03-31T14:04:58.450Z,2.15
2023-03-31T14:10:04.401Z,3.00
2023-03-31T14:15:08.457Z,2.03
2023-03-31T14:20:29.805Z,2.70
2023-03-31T14:25:45.464Z,2.25
2023-03-31T14:30:54.497Z,2.42
2023-03-31T14:36:02.640Z,1.90
2023-03-31T14:41:06.744Z,1.98
2023-03-31T14:46:10.789Z,2.60
2023-03-31T14:51:15.826Z,2.63
2023-03-31T14:56:26.388Z,2.28
2023-03-31T15:01:35.684Z,2.05
2023-03-31T15:06:39.977Z,2.60
2023-03-31T15:11:43.985Z,1.95
2023-03-31T15:16:47.013Z,1.83
2023-03-31T15:21:56.610Z,1.42
2023-03-31T15:27:04.966Z,2.55
2023-03-31T15:32:13.573Z,2.45
2023-03-31T15:37:16.392Z,1.98
2023-03-31T15:42:20.530Z,1.83
2023-03-31T15:47:25.440Z,2.50
2023-03-31T15:52:33.190Z,1.52
2023-03-31T15:57:37.349Z,2.00
2023-03-31T16:02:43.488Z,1.30
2023-03-31T16:07:47.117Z,1.73
2023-03-31T16:12:55.353Z,1.30
2023-03-31T16:18:00.775Z,1.70
2023-03-31T16:23:12.030Z,1.77
2023-03-31T16:28:19.495Z,1.83
2023-03-31T16:33:24.639Z,2.00
2023-03-31T16:38:30.445Z,1.58
2023-03-31T16:43:35.093Z,1.67
2023-03-31T16:48:37.752Z,1.42
2023-03-31T16:53:40.346Z,1.23
2023-03-31T16:58:50.666Z,1.40
2023-03-31T17:03:53.389Z,1.00
2023-03-31T17:08:56.145Z,1.85
2023-03-31T17:14:00.226Z,1.08
2023-03-31T17:19:02.836Z,0.98
2023-03-31T17:24:09.524Z,0.93
2023-03-31T17:29:15.384Z,1.15
2023-03-31T17:34:18.963Z,1.52
2023-03-31T17:39:21.585Z,1.10
2023-03-31T17:44:25.657Z,1.10
2023-03-31T17:49:28.723Z,1.30
2023-03-31T17:54:32.385Z,1.30
2023-03-31T17:59:38.455Z,1.60
2023-03-31T18:04:41.867Z,1.48
2023-03-31T18:09:44.498Z,1.25
2023-03-31T18:14:49.543Z,1.60
2023-03-31T18:19:52.138Z,2.38
2023-03-31T18:25:03.955Z,2.60
2023-03-31T18:30:09.516Z,1.95
2023-03-31T18:35:12.248Z,2.97
2023-03-31T18:40:15.465Z,3.27
2023-03-31T18:45:20.582Z,2.90
2023-03-31T18:50:23.858Z,3.15
2023-03-31T18:55:29.230Z,2.92
2023-03-31T19:00:37.117Z,2.80
2023-03-31T19:05:39.957Z,2.92
2023-03-31T19:10:42.695Z,3.00
2023-03-31T19:15:46.993Z,3.87
2023-03-31T19:20:51.938Z,4.90
2023-03-31T19:25:55.270Z,4.72
2023-03-31T19:36:02.125Z,5.03
2023-03-31T19:41:06.018Z,5.17
2023-03-31T19:46:10.063Z,4.60
2023-03-31T19:51:12.827Z,5.32
2023-03-31T19:56:17.309Z,4.13
2023-03-31T20:01:23.729Z,5.43
2023-03-31T20:06:28.558Z,5.20
2023-03-31T20:11:32.072Z,5.45
2023-03-31T20:16:38.411Z,5.35
2023-03-31T20:21:42.711Z,6.35
2023-03-31T20:26:45.637Z,5.40
2023-03-31T20:31:50.399Z,4.60
2023-03-31T20:36:53.082Z,5.07
2023-03-31T20:41:55.757Z,5.07
2023-03-31T20:47:00.517Z,4.97
2023-03-31T20:52:04.454Z,5.32
2023-03-31T20:57:07.292Z,5.05
2023-03-31T21:02:14.194Z,4.90
2023-03-31T21:07:16.826Z,5.05
2023-03-31T21:12:20.290Z,4.70
2023-03-31T21:22:27.410Z,4.43
2023-03-31T21:27:30.020Z,4.78
2023-03-31T21:32:36.023Z,4.37
2023-03-31T21:37:38.627Z,4.07
2023-03-31T21:42:41.495Z,4.80
2023-03-31T21:47:46.427Z,5.05
2023-03-31T21:52:49.042Z,5.72
2023-03-31T21:57:52.972Z,5.43
2023-03-31T22:03:16.009Z,5.47
2023-03-31T22:08:19.498Z,5.65
2023-03-31T22:13:23.151Z,5.10
2023-03-31T22:18:27.125Z,4.97
2023-03-31T22:23:29.695Z,6.20
2023-03-31T22:28:32.214Z,5.10
2023-03-31T22:33:36.141Z,5.37
2023-03-31T22:38:38.882Z,4.75
2023-03-31T22:43:43.813Z,4.30
2023-03-31T22:48:50.895Z,4.55
2023-03-31T22:53:54.836Z,4.53
2023-03-31T22:58:57.960Z,4.05
2023-03-31T23:04:01.958Z,4.38
2023-03-31T23:09:04.678Z,4.05
2023-03-31T23:14:07.273Z,4.43
2023-03-31T23:19:11.996Z,4.70
2023-03-31T23:24:14.603Z,5.40
2023-03-31T23:29:17.209Z,4.60
2023-03-31T23:34:21.249Z,4.00
2023-03-31T23:39:23.866Z,4.15
2023-03-31T23:44:27.077Z,4.87
2023-03-31T23:49:32.507Z,4.43
2023-03-31T23:54:35.147Z,4.88
2023-03-31T23:59:37.979Z,5.00
